createdAt,value
2023-04-19T00:00:11.853Z,57.10
2023-04-19T00:02:43.921Z,56.82
2023-04-19T00:05:22.995Z,57.55
2023-04-19T00:07:53.827Z,58.18
2023-04-19T00:10:24.352Z,58.54
2023-04-19T00:12:55.687Z,58.98
2023-04-19T00:15:26.509Z,60.03
2023-04-19T00:17:56.898Z,58.59
2023-04-19T00:20:27.329Z,58.85
2023-04-19T00:22:59.883Z,58.60
2023-04-19T00:25:32.160Z,58.68
2023-04-19T00:28:02.599Z,58.62
2023-04-19T00:30:33.828Z,58.27
2023-04-19T00:33:04.190Z,57.88
2023-04-19T00:35:35.468Z,57.85
2023-04-19T00:38:05.825Z,57.36
2023-04-19T00:40:36.490Z,57.41
2023-04-19T00:43:08.183Z,57.11
2023-04-19T00:45:39.378Z,56.91
2023-04-19T00:48:10.530Z,57.15
2023-04-19T00:50:42.001Z,57.03
2023-04-19T00:53:12.990Z,56.38
2023-04-19T00:55:44.618Z,56.85
2023-04-19T00:58:15.216Z,56.39
2023-04-19T01:00:46.921Z,56.26
2023-04-19T01:03:18.526Z,56.08
2023-04-19T01:05:50.123Z,56.01
2023-04-19T01:08:20.586Z,56.10
2023-04-19T01:10:51.131Z,56.21
2023-04-19T01:13:22.609Z,55.26
2023-04-19T01:15:53.134Z,55.78
2023-04-19T01:18:26.069Z,55.46
2023-04-19T01:20:57.084Z,54.99
2023-04-19T01:23:27.838Z,55.73
2023-04-19T01:25:59.281Z,55.16
2023-04-19T01:28:31.341Z,55.76
2023-04-19T01:31:01.968Z,55.59
2023-04-19T01:33:32.509Z,54.68
2023-04-19T01:36:03.174Z,54.88
2023-04-19T01:38:33.918Z,54.82
2023-04-19T01:41:04.657Z,54.77
2023-04-19T01:43:35.079Z,55.05
2023-04-19T01:46:06.120Z,54.42
2023-04-19T01:48:36.525Z,54.46
2023-04-19T01:51:07.650Z,54.39
2023-04-19T01:53:38.171Z,54.06
2023-04-19T01:56:08.731Z,54.38
2023-04-19T01:58:40.196Z,53.85
2023-04-19T02:01:14.097Z,54.28
2023-04-19T02:03:44.859Z,54.20
2023-04-19T02:06:16.284Z,53.32
2023-04-19T02:08:47.603Z,54.42
2023-04-19T02:11:18.334Z,53.68
2023-04-19T02:13:50.173Z,53.76
2023-04-19T02:16:20.699Z,53.36
2023-04-19T02:18:53.673Z,53.88
2023-04-19T02:21:24.677Z,54.03
2023-04-19T02:23:55.061Z,53.65
2023-04-19T02:26:26.180Z,53.22
2023-04-19T02:28:56.500Z,53.52
2023-04-19T02:31:27.943Z,53.10
2023-04-19T02:33:58.358Z,52.70
2023-04-19T02:36:29.657Z,52.97
2023-04-19T02:39:00.875Z,53.15
2023-04-19T02:41:31.637Z,52.96
2023-04-19T02:44:04.089Z,52.69
2023-04-19T02:46:34.757Z,53.11
2023-04-19T02:49:05.457Z,52.65
2023-04-19T02:51:35.891Z,52.68
2023-04-19T02:54:07.062Z,53.00
2023-04-19T02:56:37.495Z,52.83
2023-04-19T02:59:08.502Z,53.00
2023-04-19T03:01:38.991Z,52.86
2023-04-19T03:04:10.380Z,52.57
2023-04-19T03:06:43.657Z,52.83
2023-04-19T03:09:15.082Z,52.60
2023-04-19T03:11:45.548Z,53.40
2023-04-19T03:14:16.438Z,53.92
2023-04-19T03:16:47.460Z,54.85
2023-04-19T03:19:18.175Z,55.20
2023-04-19T03:21:53.097Z,54.77
2023-04-19T03:24:32.208Z,55.64
2023-04-19T03:27:13.273Z,56.49
2023-04-19T03:29:47.267Z,57.15
2023-04-19T03:32:18.620Z,57.64
2023-04-19T03:34:48.816Z,58.27
2023-04-19T03:37:19.435Z,58.06
2023-04-19T03:39:50.049Z,57.09
2023-04-19T03:42:28.761Z,58.18
2023-04-19T03:45:07.475Z,57.66
2023-04-19T03:47:42.895Z,58.31
2023-04-19T03:50:13.802Z,57.82
2023-04-19T03:52:48.803Z,58.06
2023-04-19T03:55:19.990Z,57.95
2023-04-19T03:57:50.826Z,58.56
2023-04-19T04:00:29.439Z,58.12
2023-04-19T04:03:03.340Z,58.40
2023-04-19T04:05:34.936Z,58.55
2023-04-19T04:08:05.445Z,58.13
2023-04-19T04:10:36.712Z,58.89
2023-04-19T04:13:07.668Z,57.66
2023-04-19T04:15:47.479Z,58.28
2023-04-19T04:18:19.883Z,57.24
2023-04-19T04:20:51.272Z,57.74
2023-04-19T04:23:23.355Z,57.58
2023-04-19T04:26:06.758Z,57.67
2023-04-19T04:28:53.765Z,58.35
2023-04-19T04:31:24.228Z,58.75
2023-04-19T04:33:56.622Z,58.28
2023-04-19T04:36:31.281Z,57.44
2023-04-19T04:39:03.393Z,57.69
2023-04-19T04:41:33.847Z,57.06
2023-04-19T04:44:12.488Z,57.03
2023-04-19T04:46:45.761Z,55.69
2023-04-19T04:49:21.598Z,55.05
2023-04-19T04:51:52.774Z,55.12
2023-04-19T04:54:24.692Z,54.77
2023-04-19T04:56:56.220Z,54.58
2023-04-19T04:59:26.697Z,54.07
2023-04-19T05:01:57.092Z,55.99
2023-04-19T05:04:28.532Z,56.64
2023-04-19T05:06:59.332Z,55.98
2023-04-19T05:09:30.853Z,56.54
2023-04-19T05:12:01.574Z,56.60
2023-04-19T05:14:33.353Z,57.89
2023-04-19T05:17:07.246Z,57.43
2023-04-19T05:19:38.789Z,57.63
2023-04-19T05:22:10.548Z,57.79
2023-04-19T05:24:42.796Z,57.46
2023-04-19T05:27:14.309Z,57.39
2023-04-19T05:29:48.676Z,58.42
2023-04-19T05:32:19.232Z,58.77
2023-04-19T05:34:56.022Z,59.05
2023-04-19T05:37:26.443Z,59.06
2023-04-19T05:39:57.002Z,59.55
2023-04-19T05:42:28.368Z,59.43
2023-04-19T05:47:42.459Z,59.48
2023-04-19T05:50:13.788Z,59.98
2023-04-19T05:52:50.695Z,59.70
2023-04-19T05:55:23.186Z,59.46
2023-04-19T05:57:53.937Z,59.89
2023-04-19T06:00:27.982Z,59.73
2023-04-19T06:03:05.921Z,59.66
2023-04-19T06:05:37.063Z,59.88
2023-04-19T06:08:08.671Z,59.18
2023-04-19T06:10:51.906Z,59.20
2023-04-19T06:13:27.307Z,58.62
2023-04-19T06:15:57.749Z,58.69
2023-04-19T06:18:29.002Z,58.57
2023-04-19T06:20:59.447Z,58.41
2023-04-19T06:23:30.785Z,57.85
2023-04-19T06:26:01.309Z,57.68
2023-04-19T06:28:31.569Z,57.55
2023-04-19T06:31:02.031Z,57.17
2023-04-19T06:33:32.545Z,57.63
2023-04-19T06:36:02.966Z,56.92
2023-04-19T06:38:33.400Z,56.42
2023-04-19T06:41:04.948Z,55.97
2023-04-19T06:43:35.370Z,56.45
2023-04-19T06:46:06.470Z,56.12
2023-04-19T06:48:37.750Z,55.82
2023-04-19T06:51:08.601Z,55.56
2023-04-19T06:53:39.523Z,55.88
2023-04-19T06:56:11.548Z,55.27
2023-04-19T06:58:42.029Z,54.91
2023-04-19T07:01:13.428Z,55.41
2023-04-19T07:03:45.095Z,54.98
2023-04-19T07:06:15.581Z,54.66
2023-04-19T07:08:50.111Z,54.21
2023-04-19T07:17:08.085Z,54.41
2023-04-19T07:19:39.077Z,53.76
2023-04-19T07:22:09.629Z,53.37
2023-04-19T07:24:41.822Z,53.31
2023-04-19T07:27:12.858Z,52.97
2023-04-19T07:29:43.075Z,53.35
2023-04-19T07:32:15.212Z,53.23
2023-04-19T07:34:47.109Z,53.54
2023-04-19T07:37:17.787Z,52.74
2023-04-19T07:39:48.080Z,52.82
2023-04-19T07:42:18.628Z,52.43
2023-04-19T07:44:49.932Z,52.23
2023-04-19T07:47:20.449Z,52.39
2023-04-19T07:49:55.157Z,51.91
2023-04-19T07:52:25.521Z,52.08
2023-04-19T07:54:55.942Z,52.75
2023-04-19T07:57:26.933Z,52.13
2023-04-19T07:59:59.577Z,52.07
2023-04-19T08:02:30.473Z,52.22
2023-04-19T08:05:01.324Z,51.71
2023-04-19T08:07:32.271Z,51.67
2023-04-19T08:10:02.748Z,52.15
2023-04-19T08:12:40.558Z,51.61
2023-04-19T08:15:49.078Z,51.44
2023-04-19T08:18:06.536Z,51.71
2023-04-19T08:20:38.244Z,51.25
2023-04-19T08:23:20.481Z,50.92
2023-04-19T08:25:52.468Z,51.33
2023-04-19T08:28:22.824Z,51.11
2023-04-19T08:30:53.862Z,51.50
2023-04-19T08:33:24.304Z,51.35
2023-04-19T08:35:54.911Z,50.68
2023-04-19T08:38:25.495Z,51.05
2023-04-19T08:40:57.741Z,51.08
2023-04-19T08:43:34.890Z,50.90
2023-04-19T08:48:50.370Z,50.34
2023-04-19T08:51:21.535Z,50.91
2023-04-19T08:53:52.596Z,50.34
2023-04-19T08:56:34.855Z,50.32
2023-04-19T09:01:44.544Z,50.72
2023-04-19T09:04:31.494Z,50.15
2023-04-19T09:07:05.706Z,50.91
2023-04-19T09:09:45.683Z,50.74
2023-04-19T09:12:22.436Z,50.01
2023-04-19T09:17:26.825Z,50.83
2023-04-19T09:19:57.603Z,50.87
2023-04-19T09:22:29.081Z,50.93
2023-04-19T09:25:34.325Z,50.73
2023-04-19T09:27:52.800Z,50.40
2023-04-19T09:30:32.278Z,49.98
2023-04-19T09:33:07.733Z,50.18
2023-04-19T09:35:49.740Z,50.01
2023-04-19T09:38:20.650Z,50.43
2023-04-19T09:40:52.377Z,50.64
2023-04-19T09:43:55.887Z,50.57
2023-04-19T09:46:37.103Z,50.19
2023-04-19T09:49:30.685Z,50.00
2023-04-19T09:52:08.291Z,49.78
2023-04-19T09:54:39.776Z,50.43
2023-04-19T09:57:11.061Z,49.77
2023-04-19T09:59:41.583Z,50.15
2023-04-19T10:02:15.151Z,49.68
2023-04-19T10:10:11.660Z,50.07
2023-04-19T10:12:59.137Z,50.37
2023-04-19T10:18:11.351Z,50.29
2023-04-19T10:20:52.026Z,49.83
2023-04-19T10:23:23.974Z,49.58
2023-04-19T10:25:59.408Z,49.97
2023-04-19T10:28:33.033Z,49.33
2023-04-19T10:31:05.969Z,49.27
2023-04-19T10:33:40.315Z,49.03
2023-04-19T10:36:19.035Z,49.76
2023-04-19T10:38:57.259Z,50.00
2023-04-19T10:42:00.886Z,49.40
2023-04-19T10:44:31.573Z,49.89
2023-04-19T10:47:02.888Z,49.63
2023-04-19T10:49:33.729Z,49.14
2023-04-19T10:52:04.982Z,49.70
2023-04-19T10:54:39.013Z,49.81
2023-04-19T10:57:12.626Z,49.65
2023-04-19T10:59:45.455Z,49.56
2023-04-19T11:02:29.760Z,49.15
2023-04-19T11:05:03.048Z,49.56
2023-04-19T11:07:40.462Z,49.01
2023-04-19T11:10:12.056Z,49.64
2023-04-19T11:12:46.791Z,49.56
2023-04-19T11:15:17.335Z,49.71
2023-04-19T11:18:11.433Z,49.51
2023-04-19T11:20:45.547Z,49.16
2023-04-19T11:23:19.609Z,49.69
2023-04-19T11:25:54.659Z,49.04
2023-04-19T11:28:25.657Z,49.72
2023-04-19T11:30:57.247Z,49.27
2023-04-19T11:33:28.861Z,49.39
2023-04-19T11:35:59.190Z,49.26
2023-04-19T11:38:33.467Z,49.14
2023-04-19T11:41:04.969Z,49.12
2023-04-19T11:43:46.831Z,49.22
2023-04-19T11:46:17.648Z,49.40
2023-04-19T11:48:55.467Z,50.38
2023-04-19T11:51:26.424Z,50.17
2023-04-19T11:53:56.966Z,50.56
2023-04-19T11:56:27.984Z,51.14
2023-04-19T11:59:00.271Z,50.88
2023-04-19T12:01:32.396Z,51.38
2023-04-19T12:04:03.202Z,50.95
2023-04-19T12:06:34.118Z,50.80
2023-04-19T12:09:13.722Z,51.04
2023-04-19T12:11:51.571Z,51.21
2023-04-19T12:14:24.476Z,51.35
2023-04-19T12:17:15.293Z,51.57
2023-04-19T12:19:48.171Z,51.44
2023-04-19T12:22:30.538Z,51.84
2023-04-19T12:25:01.065Z,51.65
2023-04-19T12:27:32.130Z,52.23
2023-04-19T12:30:02.517Z,51.79
2023-04-19T12:32:32.810Z,52.26
2023-04-19T12:35:04.068Z,51.78
2023-04-19T12:37:34.521Z,51.41
2023-04-19T12:40:05.601Z,51.88
2023-04-19T12:42:35.978Z,52.51
2023-04-19T12:45:06.533Z,51.57
2023-04-19T12:47:36.933Z,51.21
2023-04-19T12:50:08.002Z,50.70
2023-04-19T12:52:38.661Z,51.28
2023-04-19T12:55:09.869Z,51.00
2023-04-19T12:57:41.268Z,50.97
2023-04-19T13:00:12.606Z,51.32
2023-04-19T13:02:43.406Z,50.86
2023-04-19T13:05:14.541Z,52.01
2023-04-19T13:07:44.825Z,50.98
2023-04-19T13:10:15.249Z,51.30
2023-04-19T13:12:45.808Z,51.73
2023-04-19T13:15:16.237Z,52.03
2023-04-19T13:17:47.194Z,51.69
2023-04-19T13:20:17.698Z,51.31
2023-04-19T13:22:49.377Z,51.64
2023-04-19T13:25:20.001Z,52.01
2023-04-19T13:27:50.479Z,51.54
2023-04-19T13:30:20.833Z,51.64
2023-04-19T13:32:53.361Z,52.49
2023-04-19T13:35:24.050Z,51.33
2023-04-19T13:37:54.468Z,51.62
2023-04-19T13:40:25.007Z,51.53
2023-04-19T13:42:58.229Z,51.79
2023-04-19T13:45:28.672Z,52.05
2023-04-19T13:47:59.013Z,52.05
2023-04-19T13:50:29.688Z,51.65
2023-04-19T13:53:01.063Z,51.95
2023-04-19T13:55:31.912Z,52.14
2023-04-19T13:58:02.538Z,51.49
2023-04-19T14:00:33.224Z,51.96
2023-04-19T14:03:04.049Z,51.64
2023-04-19T14:05:34.322Z,51.81
2023-04-19T14:08:05.357Z,52.02
2023-04-19T14:10:36.503Z,51.76
2023-04-19T14:13:07.107Z,51.72
2023-04-19T14:15:37.572Z,51.37
2023-04-19T14:18:08.161Z,51.58
2023-04-19T14:20:38.914Z,51.26
2023-04-19T14:23:09.963Z,51.65
2023-04-19T14:25:40.390Z,51.58
2023-04-19T14:28:10.797Z,52.07
2023-04-19T14:30:42.775Z,52.00
2023-04-19T14:33:13.479Z,51.80
2023-04-19T14:35:44.400Z,51.69
2023-04-19T14:38:14.796Z,51.92
2023-04-19T14:40:46.127Z,52.08
2023-04-19T14:43:19.695Z,51.69
2023-04-19T14:45:51.944Z,51.89
2023-04-19T14:48:22.495Z,51.28
2023-04-19T14:50:53.042Z,51.81
2023-04-19T14:53:23.298Z,51.84
2023-04-19T14:55:53.986Z,52.13
2023-04-19T14:58:24.420Z,51.75
2023-04-19T15:00:56.332Z,52.08
2023-04-19T15:03:27.424Z,51.78
2023-04-19T15:05:58.112Z,51.79
2023-04-19T15:08:30.773Z,51.39
2023-04-19T15:11:02.154Z,51.67
2023-04-19T15:13:33.307Z,51.92
2023-04-19T15:16:05.427Z,51.77
2023-04-19T15:18:36.080Z,51.35
2023-04-19T15:21:07.338Z,51.27
2023-04-19T15:23:37.877Z,51.19
2023-04-19T15:26:08.281Z,51.78
2023-04-19T15:28:39.967Z,51.94
2023-04-19T15:31:11.764Z,51.46
2023-04-19T15:33:42.277Z,51.72
2023-04-19T15:36:12.756Z,51.38
2023-04-19T15:38:44.234Z,52.17
2023-04-19T15:41:14.741Z,51.86
2023-04-19T15:43:46.045Z,51.79
2023-04-19T15:46:17.708Z,51.56
2023-04-19T15:48:49.803Z,51.38
2023-04-19T15:51:21.384Z,51.32
2023-04-19T15:53:51.914Z,51.91
2023-04-19T15:56:23.215Z,52.39
2023-04-19T15:58:54.079Z,51.95
2023-04-19T16:01:24.907Z,51.61
2023-04-19T16:03:55.472Z,51.47
2023-04-19T16:06:25.986Z,51.29
2023-04-19T16:08:57.109Z,51.81
2023-04-19T16:11:28.059Z,51.83
2023-04-19T16:13:58.258Z,51.87
2023-04-19T16:16:32.400Z,51.31
2023-04-19T16:19:03.108Z,51.67
2023-04-19T16:21:34.110Z,51.79
2023-04-19T16:24:04.455Z,52.59
2023-04-19T16:26:35.245Z,52.25
2023-04-19T16:29:05.915Z,52.00
2023-04-19T16:31:37.115Z,51.70
2023-04-19T16:34:07.560Z,52.08
2023-04-19T16:36:38.119Z,51.39
2023-04-19T16:39:08.556Z,51.35
2023-04-19T16:41:39.303Z,52.32
2023-04-19T16:44:09.910Z,52.53
2023-04-19T16:46:40.180Z,51.71
2023-04-19T16:49:10.638Z,51.34
2023-04-19T16:51:41.047Z,51.86
2023-04-19T16:54:11.461Z,51.83
2023-04-19T16:56:42.210Z,52.25
2023-04-19T16:59:12.565Z,51.59
2023-04-19T17:01:43.174Z,51.79
2023-04-19T17:04:14.015Z,51.90
2023-04-19T17:06:45.133Z,51.28
2023-04-19T17:09:15.836Z,51.50
2023-04-19T17:11:46.389Z,51.82
2023-04-19T17:14:17.350Z,51.57
2023-04-19T17:16:48.082Z,52.12
2023-04-19T17:19:19.290Z,51.52
2023-04-19T17:21:49.718Z,51.52
2023-04-19T17:24:19.984Z,51.51
2023-04-19T17:26:51.365Z,52.09
2023-04-19T17:29:21.685Z,51.16
2023-04-19T17:31:52.375Z,52.05
2023-04-19T17:34:23.175Z,52.67
2023-04-19T17:36:53.908Z,52.15
2023-04-19T17:39:24.353Z,51.66
2023-04-19T17:41:55.852Z,52.23
2023-04-19T17:44:26.937Z,51.75
2023-04-19T17:46:57.418Z,52.18
2023-04-19T17:49:28.524Z,52.76
2023-04-19T17:51:58.913Z,52.07
2023-04-19T17:54:29.136Z,52.48
2023-04-19T17:57:00.868Z,52.32
2023-04-19T17:59:32.187Z,52.63
2023-04-19T18:02:04.034Z,52.50
2023-04-19T18:04:34.838Z,52.68
2023-04-19T18:07:06.163Z,52.23
2023-04-19T18:09:36.673Z,51.97
2023-04-19T18:12:07.309Z,52.29
2023-04-19T18:14:38.085Z,52.33
2023-04-19T18:17:09.559Z,52.45
2023-04-19T18:19:39.967Z,52.91
2023-04-19T18:22:10.725Z,52.15
2023-04-19T18:24:45.351Z,51.95
2023-04-19T18:27:16.609Z,52.08
2023-04-19T18:29:47.046Z,53.01
2023-04-19T18:32:17.634Z,51.94
2023-04-19T18:34:48.965Z,52.27
2023-04-19T18:37:19.906Z,52.52
2023-04-19T18:39:50.357Z,52.24
2023-04-19T18:42:20.993Z,51.96
2023-04-19T18:44:54.178Z,51.96
2023-04-19T18:47:27.609Z,52.66
2023-04-19T18:50:05.238Z,52.18
2023-04-19T18:52:39.368Z,52.50
2023-04-19T18:55:10.253Z,52.39
2023-04-19T18:57:40.602Z,52.17
2023-04-19T19:00:12.601Z,52.36
2023-04-19T19:02:44.028Z,53.09
2023-04-19T19:05:17.271Z,52.31
2023-04-19T19:07:48.454Z,52.84
2023-04-19T19:10:21.810Z,52.94
2023-04-19T19:12:54.168Z,52.67
2023-04-19T19:15:24.449Z,52.53
2023-04-19T19:17:55.495Z,52.82
2023-04-19T19:20:26.077Z,52.88
2023-04-19T19:22:57.371Z,52.56
2023-04-19T19:25:27.917Z,52.67
2023-04-19T19:30:35.240Z,52.70
2023-04-19T19:33:06.405Z,52.91
2023-04-19T19:35:36.778Z,52.87
2023-04-19T19:38:07.035Z,52.95
2023-04-19T19:40:53.545Z,52.37
2023-04-19T19:43:28.705Z,52.67
2023-04-19T19:45:59.167Z,53.40
2023-04-19T19:48:30.478Z,52.85
2023-04-19T19:51:31.349Z,52.99
2023-04-19T19:53:52.085Z,53.24
2023-04-19T19:56:24.402Z,53.23
2023-04-19T19:58:56.417Z,53.00
2023-04-19T20:01:28.507Z,53.44
2023-04-19T20:03:59.374Z,53.25
2023-04-19T20:09:02.827Z,53.46
2023-04-19T20:11:33.260Z,54.39
2023-04-19T20:14:04.230Z,54.12
2023-04-19T20:16:35.443Z,53.80
2023-04-19T20:19:11.170Z,53.69
2023-04-19T20:21:42.434Z,53.91
2023-04-19T20:24:13.593Z,53.39
2023-04-19T20:26:44.359Z,53.89
2023-04-19T20:29:14.863Z,54.21
2023-04-19T20:31:46.387Z,53.56
2023-04-19T20:34:16.940Z,54.17
2023-04-19T20:36:50.315Z,53.69
2023-04-19T20:39:21.735Z,54.23
2023-04-19T20:41:53.155Z,54.49
2023-04-19T20:44:24.375Z,54.15
2023-04-19T20:46:55.375Z,53.62
2023-04-19T20:49:25.759Z,53.93
2023-04-19T20:51:56.116Z,54.23
2023-04-19T20:54:26.755Z,54.16
2023-04-19T20:57:04.705Z,54.58
2023-04-19T20:59:35.517Z,54.55
2023-04-19T21:02:06.578Z,55.27
2023-04-19T21:04:37.680Z,54.83
2023-04-19T21:07:08.524Z,54.82
2023-04-19T21:09:39.059Z,55.18
2023-04-19T21:12:10.333Z,55.52
2023-04-19T21:14:40.674Z,55.85
2023-04-19T21:17:11.257Z,55.71
2023-04-19T21:19:41.453Z,55.88
2023-04-19T21:22:12.493Z,55.71
2023-04-19T21:24:42.921Z,55.54
2023-04-19T21:27:13.331Z,55.99
2023-04-19T21:29:43.711Z,56.33
2023-04-19T21:32:14.163Z,55.44
2023-04-19T21:34:45.627Z,55.87
2023-04-19T21:37:16.823Z,56.05
2023-04-19T21:39:47.221Z,56.23
2023-04-19T21:42:17.707Z,55.76
2023-04-19T21:44:48.326Z,55.92
2023-04-19T21:47:18.716Z,56.08
2023-04-19T21:49:49.226Z,55.88
2023-04-19T21:52:19.954Z,55.89
2023-04-19T21:54:51.276Z,56.47
2023-04-19T21:57:25.974Z,56.50
2023-04-19T21:59:56.794Z,55.92
2023-04-19T22:02:27.270Z,55.71
2023-04-19T22:05:01.669Z,56.01
2023-04-19T22:07:32.736Z,56.22
2023-04-19T22:10:03.281Z,56.25
2023-04-19T22:12:38.886Z,56.77
2023-04-19T22:15:16.435Z,56.06
2023-04-19T22:17:47.570Z,55.94
2023-04-19T22:20:19.303Z,56.10
2023-04-19T22:22:49.680Z,56.28
2023-04-19T22:25:20.408Z,55.89
2023-04-19T22:27:50.851Z,55.54
2023-04-19T22:30:21.322Z,55.70
2023-04-19T22:32:51.837Z,56.27
2023-04-19T22:35:23.213Z,56.23
2023-04-19T22:37:54.466Z,55.73
2023-04-19T22:40:25.069Z,56.18
2023-04-19T22:42:55.527Z,55.80
2023-04-19T22:45:26.491Z,55.95
2023-04-19T22:47:57.316Z,55.66
2023-04-19T22:50:27.919Z,55.30
2023-04-19T22:52:58.369Z,55.80
2023-04-19T22:55:29.114Z,56.82
2023-04-19T22:57:59.506Z,57.92
2023-04-19T23:00:30.344Z,57.59
2023-04-19T23:03:01.103Z,58.18
2023-04-19T23:05:32.468Z,58.85
2023-04-19T23:08:06.119Z,59.33
2023-04-19T23:10:39.601Z,59.11
2023-04-19T23:13:11.928Z,59.65
2023-04-19T23:15:42.392Z,60.27
2023-04-19T23:18:13.146Z,60.38
2023-04-19T23:20:43.761Z,60.61
2023-04-19T23:23:14.344Z,60.44
2023-04-19T23:25:44.967Z,60.54
2023-04-19T23:28:15.372Z,61.24
2023-04-19T23:30:45.821Z,60.47
2023-04-19T23:33:16.211Z,61.32
2023-04-19T23:35:46.606Z,61.25
2023-04-19T23:38:17.642Z,60.95
2023-04-19T23:40:48.171Z,61.14
2023-04-19T23:43:18.547Z,61.24
2023-04-19T23:45:48.964Z,61.77
2023-04-19T23:48:19.391Z,61.38
2023-04-19T23:50:49.646Z,61.33
2023-04-19T23:53:20.307Z,62.01
2023-04-19T23:55:50.878Z,61.97
2023-04-19T23:58:21.384Z,62.58
